Terminal Aerodrome Forecast
Issued by NWS

Home | Current Version | Previous Version | Text Only | Print | Product List | Glossary On
Versions: 1 2 3 4 5 6 7 8 9 10 11 12 13 14 15 16 17 18 19 20 21 22
000
FTUS43 KDVN 181500 AAA
TAFBRL
TAF AMD
KBRL 181541Z 1816/1912 VRB03KT P6SM -SHSN BKN025
      TEMPO 1816/1819 BKN035
     FM181900 VRB03KT P6SM OVC060=

USA.gov is the U.S. government's official web portal to all federal, state and local government web resources and services.